sensor_id;sensor_type;location;lat;lon;timestamp;temperature;humidity
80577;DHT22;69937;52.420;10.538;2024-02-26T00:00:43;1.60;73.60
80577;DHT22;69937;52.420;10.538;2024-02-26T00:05:43;1.50;73.70
80577;DHT22;69937;52.420;10.538;2024-02-26T00:10:44;1.50;73.70
80577;DHT22;69937;52.420;10.538;2024-02-26T00:15:44;1.40;74.00
80577;DHT22;69937;52.420;10.538;2024-02-26T00:20:45;1.40;74.30
80577;DHT22;69937;52.420;10.538;2024-02-26T00:25:46;1.40;74.30
80577;DHT22;69937;52.420;10.538;2024-02-26T00:30:47;1.40;74.20
80577;DHT22;69937;52.420;10.538;2024-02-26T00:35:48;1.40;74.50
80577;DHT22;69937;52.420;10.538;2024-02-26T00:40:49;1.20;74.60
80577;DHT22;69937;52.420;10.538;2024-02-26T00:45:49;1.20;75.50
80577;DHT22;69937;52.420;10.538;2024-02-26T00:50:50;1.20;75.70
80577;DHT22;69937;52.420;10.538;2024-02-26T00:55:51;1.40;75.40
80577;DHT22;69937;52.420;10.538;2024-02-26T01:00:51;1.40;74.50
80577;DHT22;69937;52.420;10.538;2024-02-26T01:05:52;1.40;74.50
80577;DHT22;69937;52.420;10.538;2024-02-26T01:10:52;1.30;74.70
80577;DHT22;69937;52.420;10.538;2024-02-26T01:15:53;1.30;75.10
80577;DHT22;69937;52.420;10.538;2024-02-26T01:20:53;1.30;75.30
80577;DHT22;69937;52.420;10.538;2024-02-26T01:25:54;1.20;74.70
80577;DHT22;69937;52.420;10.538;2024-02-26T01:30:55;1.20;74.30
80577;DHT22;69937;52.420;10.538;2024-02-26T01:35:55;1.20;74.50
80577;DHT22;69937;52.420;10.538;2024-02-26T01:40:56;1.20;74.60
80577;DHT22;69937;52.420;10.538;2024-02-26T01:45:57;1.10;74.60
80577;DHT22;69937;52.420;10.538;2024-02-26T01:50:57;1.10;75.00
80577;DHT22;69937;52.420;10.538;2024-02-26T01:55:58;1.10;75.40
80577;DHT22;69937;52.420;10.538;2024-02-26T02:00:59;1.10;75.70
80577;DHT22;69937;52.420;10.538;2024-02-26T02:06:01;1.10;75.90
80577;DHT22;69937;52.420;10.538;2024-02-26T02:11:01;1.10;77.00
80577;DHT22;69937;52.420;10.538;2024-02-26T02:16:03;1.20;77.40
80577;DHT22;69937;52.420;10.538;2024-02-26T02:21:04;1.20;76.80
80577;DHT22;69937;52.420;10.538;2024-02-26T02:26:04;1.20;76.80
80577;DHT22;69937;52.420;10.538;2024-02-26T02:31:05;1.20;76.40
80577;DHT22;69937;52.420;10.538;2024-02-26T02:36:06;1.20;76.20
80577;DHT22;69937;52.420;10.538;2024-02-26T02:41:10;1.10;76.00
80577;DHT22;69937;52.420;10.538;2024-02-26T02:46:10;1.10;76.40
80577;DHT22;69937;52.420;10.538;2024-02-26T02:51:14;1.10;77.30
80577;DHT22;69937;52.420;10.538;2024-02-26T02:56:14;1.20;77.50
80577;DHT22;69937;52.420;10.538;2024-02-26T03:01:14;1.20;77.30
80577;DHT22;69937;52.420;10.538;2024-02-26T03:06:15;1.20;77.70
80577;DHT22;69937;52.420;10.538;2024-02-26T03:11:15;1.20;77.10
80577;DHT22;69937;52.420;10.538;2024-02-26T03:16:17;1.20;77.20
80577;DHT22;69937;52.420;10.538;2024-02-26T03:21:18;1.30;77.20
80577;DHT22;69937;52.420;10.538;2024-02-26T03:26:19;1.20;77.30
80577;DHT22;69937;52.420;10.538;2024-02-26T03:31:19;1.30;77.30
80577;DHT22;69937;52.420;10.538;2024-02-26T03:36:22;1.30;76.90
80577;DHT22;69937;52.420;10.538;2024-02-26T03:41:22;1.30;76.60
80577;DHT22;69937;52.420;10.538;2024-02-26T03:46:23;1.40;76.90
80577;DHT22;69937;52.420;10.538;2024-02-26T03:51:23;1.40;76.90
80577;DHT22;69937;52.420;10.538;2024-02-26T03:56:25;1.30;76.90
80577;DHT22;69937;52.420;10.538;2024-02-26T04:01:25;1.20;76.90
80577;DHT22;69937;52.420;10.538;2024-02-26T04:06:26;1.20;77.20
80577;DHT22;69937;52.420;10.538;2024-02-26T04:11:26;1.10;77.30
80577;DHT22;69937;52.420;10.538;2024-02-26T04:16:27;1.10;77.60
80577;DHT22;69937;52.420;10.538;2024-02-26T04:21:27;1.10;77.80
80577;DHT22;69937;52.420;10.538;2024-02-26T04:26:30;1.20;77.80
80577;DHT22;69937;52.420;10.538;2024-02-26T04:31:30;1.20;77.90
80577;DHT22;69937;52.420;10.538;2024-02-26T04:36:33;1.20;78.10
80577;DHT22;69937;52.420;10.538;2024-02-26T04:41:33;1.10;78.30
80577;DHT22;69937;52.420;10.538;2024-02-26T04:46:34;1.10;78.60
80577;DHT22;69937;52.420;10.538;2024-02-26T04:51:35;1.10;78.20
80577;DHT22;69937;52.420;10.538;2024-02-26T04:56:35;1.10;78.30
80577;DHT22;69937;52.420;10.538;2024-02-26T05:01:36;1.10;78.30
80577;DHT22;69937;52.420;10.538;2024-02-26T05:06:37;1.10;78.30
80577;DHT22;69937;52.420;10.538;2024-02-26T05:11:38;1.10;78.50
80577;DHT22;69937;52.420;10.538;2024-02-26T05:16:38;1.10;78.30
80577;DHT22;69937;52.420;10.538;2024-02-26T05:21:39;1.10;78.40
80577;DHT22;69937;52.420;10.538;2024-02-26T05:26:41;1.10;78.50
80577;DHT22;69937;52.420;10.538;2024-02-26T05:31:44;1.10;78.60
80577;DHT22;69937;52.420;10.538;2024-02-26T05:36:45;1.10;78.60
80577;DHT22;69937;52.420;10.538;2024-02-26T05:41:45;1.10;78.50
80577;DHT22;69937;52.420;10.538;2024-02-26T05:46:46;1.10;78.60
80577;DHT22;69937;52.420;10.538;2024-02-26T05:51:46;1.10;78.20
80577;DHT22;69937;52.420;10.538;2024-02-26T05:56:47;1.10;78.20
80577;DHT22;69937;52.420;10.538;2024-02-26T06:01:47;1.10;78.40
80577;DHT22;69937;52.420;10.538;2024-02-26T06:06:48;1.10;78.50
80577;DHT22;69937;52.420;10.538;2024-02-26T06:11:49;1.10;78.30
80577;DHT22;69937;52.420;10.538;2024-02-26T06:16:50;1.20;78.20
80577;DHT22;69937;52.420;10.538;2024-02-26T06:21:50;1.20;78.40
80577;DHT22;69937;52.420;10.538;2024-02-26T06:26:51;1.30;78.70
80577;DHT22;69937;52.420;10.538;2024-02-26T06:31:51;1.40;78.60
80577;DHT22;69937;52.420;10.538;2024-02-26T06:36:52;1.50;78.30
80577;DHT22;69937;52.420;10.538;2024-02-26T06:41:53;1.50;78.10
80577;DHT22;69937;52.420;10.538;2024-02-26T06:47:01;1.60;77.80
80577;DHT22;69937;52.420;10.538;2024-02-26T06:52:01;1.70;77.60
80577;DHT22;69937;52.420;10.538;2024-02-26T06:57:02;1.70;77.50
80577;DHT22;69937;52.420;10.538;2024-02-26T07:02:03;1.80;77.30
80577;DHT22;69937;52.420;10.538;2024-02-26T07:07:04;1.90;77.20
80577;DHT22;69937;52.420;10.538;2024-02-26T07:12:04;1.90;76.80
80577;DHT22;69937;52.420;10.538;2024-02-26T07:17:05;2.00;76.50
80577;DHT22;69937;52.420;10.538;2024-02-26T07:22:05;2.10;76.40
80577;DHT22;69937;52.420;10.538;2024-02-26T07:27:06;2.10;76.10
80577;DHT22;69937;52.420;10.538;2024-02-26T07:32:07;2.20;76.10
80577;DHT22;69937;52.420;10.538;2024-02-26T07:37:08;2.30;75.90
80577;DHT22;69937;52.420;10.538;2024-02-26T07:42:08;2.40;75.80
80577;DHT22;69937;52.420;10.538;2024-02-26T07:47:09;2.50;75.30
80577;DHT22;69937;52.420;10.538;2024-02-26T07:52:10;2.50;75.10
80577;DHT22;69937;52.420;10.538;2024-02-26T07:57:11;2.60;75.20
80577;DHT22;69937;52.420;10.538;2024-02-26T08:02:11;2.70;74.70
80577;DHT22;69937;52.420;10.538;2024-02-26T08:07:12;2.70;74.90
80577;DHT22;69937;52.420;10.538;2024-02-26T08:12:12;2.80;75.00
80577;DHT22;69937;52.420;10.538;2024-02-26T08:17:13;2.90;74.20
80577;DHT22;69937;52.420;10.538;2024-02-26T08:22:13;3.10;74.20
80577;DHT22;69937;52.420;10.538;2024-02-26T08:27:16;3.20;74.20
80577;DHT22;69937;52.420;10.538;2024-02-26T08:32:17;3.30;74.00
80577;DHT22;69937;52.420;10.538;2024-02-26T08:37:18;3.50;73.60
80577;DHT22;69937;52.420;10.538;2024-02-26T08:42:18;3.50;73.20
80577;DHT22;69937;52.420;10.538;2024-02-26T08:47:19;3.60;73.50
80577;DHT22;69937;52.420;10.538;2024-02-26T08:52:19;3.70;73.00
80577;DHT22;69937;52.420;10.538;2024-02-26T08:57:20;3.90;73.00
80577;DHT22;69937;52.420;10.538;2024-02-26T09:02:21;4.00;72.20
80577;DHT22;69937;52.420;10.538;2024-02-26T09:07:21;4.00;72.40
80577;DHT22;69937;52.420;10.538;2024-02-26T09:12:22;4.10;71.70
80577;DHT22;69937;52.420;10.538;2024-02-26T09:17:23;4.10;71.90
80577;DHT22;69937;52.420;10.538;2024-02-26T09:22:24;4.30;71.60
80577;DHT22;69937;52.420;10.538;2024-02-26T09:27:24;4.40;71.80
80577;DHT22;69937;52.420;10.538;2024-02-26T09:32:25;4.50;71.10
80577;DHT22;69937;52.420;10.538;2024-02-26T09:37:25;4.70;71.70
80577;DHT22;69937;52.420;10.538;2024-02-26T09:42:26;4.80;70.60
80577;DHT22;69937;52.420;10.538;2024-02-26T09:47:31;4.80;69.80
80577;DHT22;69937;52.420;10.538;2024-02-26T09:52:33;5.00;69.80
80577;DHT22;69937;52.420;10.538;2024-02-26T09:57:36;5.00;70.00
80577;DHT22;69937;52.420;10.538;2024-02-26T10:02:38;5.20;70.50
80577;DHT22;69937;52.420;10.538;2024-02-26T10:07:39;5.40;70.20
80577;DHT22;69937;52.420;10.538;2024-02-26T10:12:39;5.50;70.30
80577;DHT22;69937;52.420;10.538;2024-02-26T10:17:41;5.60;69.30
80577;DHT22;69937;52.420;10.538;2024-02-26T10:22:42;5.70;69.00
80577;DHT22;69937;52.420;10.538;2024-02-26T10:27:43;5.80;68.30
80577;DHT22;69937;52.420;10.538;2024-02-26T10:32:44;5.90;68.00
80577;DHT22;69937;52.420;10.538;2024-02-26T10:37:46;5.90;67.90
80577;DHT22;69937;52.420;10.538;2024-02-26T10:42:47;6.00;67.90
80577;DHT22;69937;52.420;10.538;2024-02-26T10:47:47;6.10;68.00
80577;DHT22;69937;52.420;10.538;2024-02-26T10:52:48;6.10;66.90
80577;DHT22;69937;52.420;10.538;2024-02-26T10:57:51;6.30;67.50
80577;DHT22;69937;52.420;10.538;2024-02-26T11:02:52;6.30;67.60
80577;DHT22;69937;52.420;10.538;2024-02-26T11:07:54;6.40;66.60
80577;DHT22;69937;52.420;10.538;2024-02-26T11:12:57;6.50;66.80
80577;DHT22;69937;52.420;10.538;2024-02-26T11:18:00;6.60;67.90
80577;DHT22;69937;52.420;10.538;2024-02-26T11:23:01;6.70;66.90
80577;DHT22;69937;52.420;10.538;2024-02-26T11:28:05;6.70;67.10
80577;DHT22;69937;52.420;10.538;2024-02-26T11:33:08;6.70;66.80
80577;DHT22;69937;52.420;10.538;2024-02-26T11:38:17;6.80;67.10
80577;DHT22;69937;52.420;10.538;2024-02-26T11:43:24;6.80;67.10
80577;DHT22;69937;52.420;10.538;2024-02-26T11:48:44;6.80;66.90
80577;DHT22;69937;52.420;10.538;2024-02-26T11:53:46;6.90;67.50
80577;DHT22;69937;52.420;10.538;2024-02-26T11:59:00;6.90;68.20
80577;DHT22;69937;52.420;10.538;2024-02-26T12:04:01;7.00;68.00
80577;DHT22;69937;52.420;10.538;2024-02-26T12:09:02;7.00;68.40
80577;DHT22;69937;52.420;10.538;2024-02-26T12:14:03;7.00;68.30
80577;DHT22;69937;52.420;10.538;2024-02-26T12:19:07;7.10;68.40
80577;DHT22;69937;52.420;10.538;2024-02-26T12:24:13;7.20;69.10
80577;DHT22;69937;52.420;10.538;2024-02-26T12:29:14;7.20;68.00
80577;DHT22;69937;52.420;10.538;2024-02-26T12:34:15;7.20;68.00
80577;DHT22;69937;52.420;10.538;2024-02-26T12:39:17;7.40;67.70
80577;DHT22;69937;52.420;10.538;2024-02-26T12:44:17;7.50;67.40
80577;DHT22;69937;52.420;10.538;2024-02-26T12:49:18;7.50;66.80
80577;DHT22;69937;52.420;10.538;2024-02-26T12:54:19;7.50;67.00
80577;DHT22;69937;52.420;10.538;2024-02-26T12:59:19;7.60;67.00
80577;DHT22;69937;52.420;10.538;2024-02-26T13:04:20;7.50;66.70
80577;DHT22;69937;52.420;10.538;2024-02-26T13:09:21;7.60;66.50
80577;DHT22;69937;52.420;10.538;2024-02-26T13:14:23;7.60;67.10
80577;DHT22;69937;52.420;10.538;2024-02-26T13:19:24;7.60;66.70
80577;DHT22;69937;52.420;10.538;2024-02-26T13:24:24;7.60;66.60
80577;DHT22;69937;52.420;10.538;2024-02-26T13:29:25;7.60;66.50
80577;DHT22;69937;52.420;10.538;2024-02-26T13:34:27;7.60;66.60
80577;DHT22;69937;52.420;10.538;2024-02-26T13:39:28;7.70;67.10
80577;DHT22;69937;52.420;10.538;2024-02-26T13:44:28;7.80;67.20
80577;DHT22;69937;52.420;10.538;2024-02-26T13:49:29;7.80;67.00
80577;DHT22;69937;52.420;10.538;2024-02-26T13:54:29;7.80;67.00
80577;DHT22;69937;52.420;10.538;2024-02-26T13:59:30;7.90;66.80
80577;DHT22;69937;52.420;10.538;2024-02-26T14:04:30;7.90;66.60
80577;DHT22;69937;52.420;10.538;2024-02-26T14:09:31;7.80;66.60
80577;DHT22;69937;52.420;10.538;2024-02-26T14:14:32;7.80;66.70
80577;DHT22;69937;52.420;10.538;2024-02-26T14:19:35;7.90;67.00
80577;DHT22;69937;52.420;10.538;2024-02-26T14:24:36;8.00;66.70
80577;DHT22;69937;52.420;10.538;2024-02-26T14:29:37;8.00;66.30
80577;DHT22;69937;52.420;10.538;2024-02-26T14:34:40;8.00;66.60
80577;DHT22;69937;52.420;10.538;2024-02-26T14:39:40;8.00;66.70
80577;DHT22;69937;52.420;10.538;2024-02-26T14:44:41;8.00;66.50
80577;DHT22;69937;52.420;10.538;2024-02-26T14:49:41;8.00;66.40
80577;DHT22;69937;52.420;10.538;2024-02-26T14:54:42;8.00;66.50
80577;DHT22;69937;52.420;10.538;2024-02-26T14:59:43;8.00;67.10
80577;DHT22;69937;52.420;10.538;2024-02-26T15:04:44;7.90;67.20
80577;DHT22;69937;52.420;10.538;2024-02-26T15:09:45;7.90;66.80
80577;DHT22;69937;52.420;10.538;2024-02-26T15:14:46;7.90;67.20
80577;DHT22;69937;52.420;10.538;2024-02-26T15:19:46;7.90;67.50
80577;DHT22;69937;52.420;10.538;2024-02-26T15:24:47;7.80;67.60
80577;DHT22;69937;52.420;10.538;2024-02-26T15:29:47;7.80;68.10
80577;DHT22;69937;52.420;10.538;2024-02-26T15:34:48;7.80;67.80
80577;DHT22;69937;52.420;10.538;2024-02-26T15:39:48;7.80;67.70
80577;DHT22;69937;52.420;10.538;2024-02-26T15:44:49;7.80;68.20
80577;DHT22;69937;52.420;10.538;2024-02-26T15:49:49;7.80;68.10
80577;DHT22;69937;52.420;10.538;2024-02-26T15:54:50;7.80;68.60
80577;DHT22;69937;52.420;10.538;2024-02-26T15:59:52;7.80;68.20
80577;DHT22;69937;52.420;10.538;2024-02-26T16:04:54;7.80;68.50
80577;DHT22;69937;52.420;10.538;2024-02-26T16:09:54;7.70;68.40
80577;DHT22;69937;52.420;10.538;2024-02-26T16:14:55;7.60;68.10
80577;DHT22;69937;52.420;10.538;2024-02-26T16:19:56;7.70;68.20
80577;DHT22;69937;52.420;10.538;2024-02-26T16:24:56;7.60;68.20
80577;DHT22;69937;52.420;10.538;2024-02-26T16:29:57;7.50;68.30
80577;DHT22;69937;52.420;10.538;2024-02-26T16:34:59;7.50;68.70
80577;DHT22;69937;52.420;10.538;2024-02-26T16:40:01;7.50;68.60
80577;DHT22;69937;52.420;10.538;2024-02-26T16:45:05;7.40;69.00
80577;DHT22;69937;52.420;10.538;2024-02-26T16:50:05;7.40;69.00
80577;DHT22;69937;52.420;10.538;2024-02-26T16:55:06;7.40;68.40
80577;DHT22;69937;52.420;10.538;2024-02-26T17:00:09;7.40;68.70
80577;DHT22;69937;52.420;10.538;2024-02-26T17:05:12;7.30;68.40
80577;DHT22;69937;52.420;10.538;2024-02-26T17:10:14;7.30;67.50
80577;DHT22;69937;52.420;10.538;2024-02-26T17:15:15;7.30;67.90
80577;DHT22;69937;52.420;10.538;2024-02-26T17:20:16;7.30;66.70
80577;DHT22;69937;52.420;10.538;2024-02-26T17:25:17;7.30;66.50
80577;DHT22;69937;52.420;10.538;2024-02-26T17:30:19;7.20;65.90
80577;DHT22;69937;52.420;10.538;2024-02-26T17:35:19;7.20;65.60
80577;DHT22;69937;52.420;10.538;2024-02-26T17:40:20;7.20;65.20
80577;DHT22;69937;52.420;10.538;2024-02-26T17:45:21;7.20;64.70
80577;DHT22;69937;52.420;10.538;2024-02-26T17:50:22;7.20;65.00
80577;DHT22;69937;52.420;10.538;2024-02-26T17:55:24;7.20;65.20
80577;DHT22;69937;52.420;10.538;2024-02-26T18:00:24;7.20;65.10
80577;DHT22;69937;52.420;10.538;2024-02-26T18:05:27;7.20;65.30
80577;DHT22;69937;52.420;10.538;2024-02-26T18:10:28;7.20;65.50
80577;DHT22;69937;52.420;10.538;2024-02-26T18:15:29;7.10;65.70
80577;DHT22;69937;52.420;10.538;2024-02-26T18:20:29;7.00;66.00
80577;DHT22;69937;52.420;10.538;2024-02-26T18:25:30;7.00;66.00
80577;DHT22;69937;52.420;10.538;2024-02-26T18:30:31;7.00;66.10
80577;DHT22;69937;52.420;10.538;2024-02-26T18:35:32;6.90;66.10
80577;DHT22;69937;52.420;10.538;2024-02-26T18:40:32;6.80;66.40
80577;DHT22;69937;52.420;10.538;2024-02-26T18:45:33;6.80;66.30
80577;DHT22;69937;52.420;10.538;2024-02-26T18:50:34;6.80;66.20
80577;DHT22;69937;52.420;10.538;2024-02-26T18:55:34;6.70;66.10
80577;DHT22;69937;52.420;10.538;2024-02-26T19:00:36;6.70;66.40
80577;DHT22;69937;52.420;10.538;2024-02-26T19:05:37;6.70;66.50
80577;DHT22;69937;52.420;10.538;2024-02-26T19:10:38;6.60;66.70
80577;DHT22;69937;52.420;10.538;2024-02-26T19:15:39;6.60;66.80
80577;DHT22;69937;52.420;10.538;2024-02-26T19:20:41;6.50;66.80
80577;DHT22;69937;52.420;10.538;2024-02-26T19:25:42;6.50;67.30
80577;DHT22;69937;52.420;10.538;2024-02-26T19:30:43;6.50;67.50
80577;DHT22;69937;52.420;10.538;2024-02-26T19:35:43;6.40;67.70
80577;DHT22;69937;52.420;10.538;2024-02-26T19:40:48;6.40;68.10
80577;DHT22;69937;52.420;10.538;2024-02-26T19:45:48;6.40;68.20
80577;DHT22;69937;52.420;10.538;2024-02-26T19:50:49;6.30;68.30
80577;DHT22;69937;52.420;10.538;2024-02-26T19:55:50;6.30;68.50
80577;DHT22;69937;52.420;10.538;2024-02-26T20:00:50;6.30;68.80
80577;DHT22;69937;52.420;10.538;2024-02-26T20:05:51;6.20;69.00
80577;DHT22;69937;52.420;10.538;2024-02-26T20:10:51;6.20;69.20
80577;DHT22;69937;52.420;10.538;2024-02-26T20:15:52;6.20;69.40
80577;DHT22;69937;52.420;10.538;2024-02-26T20:20:52;6.20;69.70
80577;DHT22;69937;52.420;10.538;2024-02-26T20:25:53;6.20;69.80
80577;DHT22;69937;52.420;10.538;2024-02-26T20:30:57;6.20;70.10
80577;DHT22;69937;52.420;10.538;2024-02-26T20:35:57;6.10;70.30
80577;DHT22;69937;52.420;10.538;2024-02-26T20:40:58;6.10;70.50
80577;DHT22;69937;52.420;10.538;2024-02-26T20:45:59;6.10;70.50
80577;DHT22;69937;52.420;10.538;2024-02-26T20:50:59;6.10;70.70
80577;DHT22;69937;52.420;10.538;2024-02-26T20:56:00;6.00;71.00
80577;DHT22;69937;52.420;10.538;2024-02-26T21:01:01;6.00;71.20
80577;DHT22;69937;52.420;10.538;2024-02-26T21:06:01;5.90;71.50
80577;DHT22;69937;52.420;10.538;2024-02-26T21:11:04;5.80;71.90
80577;DHT22;69937;52.420;10.538;2024-02-26T21:16:05;5.80;72.00
80577;DHT22;69937;52.420;10.538;2024-02-26T21:21:06;5.70;72.10
80577;DHT22;69937;52.420;10.538;2024-02-26T21:26:07;5.60;72.20
80577;DHT22;69937;52.420;10.538;2024-02-26T21:31:08;5.60;72.60
80577;DHT22;69937;52.420;10.538;2024-02-26T21:36:09;5.50;72.60
80577;DHT22;69937;52.420;10.538;2024-02-26T21:41:10;5.40;72.80
80577;DHT22;69937;52.420;10.538;2024-02-26T21:46:10;5.30;72.80
80577;DHT22;69937;52.420;10.538;2024-02-26T21:51:11;5.30;72.80
80577;DHT22;69937;52.420;10.538;2024-02-26T21:56:12;5.30;73.10
80577;DHT22;69937;52.420;10.538;2024-02-26T22:01:12;5.20;73.10
80577;DHT22;69937;52.420;10.538;2024-02-26T22:06:13;5.20;73.20
80577;DHT22;69937;52.420;10.538;2024-02-26T22:11:13;5.10;73.40
80577;DHT22;69937;52.420;10.538;2024-02-26T22:16:14;5.00;74.00
80577;DHT22;69937;52.420;10.538;2024-02-26T22:21:14;5.00;74.20
80577;DHT22;69937;52.420;10.538;2024-02-26T22:26:15;5.00;74.50
80577;DHT22;69937;52.420;10.538;2024-02-26T22:31:16;5.00;74.70
80577;DHT22;69937;52.420;10.538;2024-02-26T22:36:18;5.00;75.00
80577;DHT22;69937;52.420;10.538;2024-02-26T22:41:21;5.00;75.10
80577;DHT22;69937;52.420;10.538;2024-02-26T22:46:22;5.00;75.20
80577;DHT22;69937;52.420;10.538;2024-02-26T22:51:22;4.90;75.50
80577;DHT22;69937;52.420;10.538;2024-02-26T22:56:23;4.90;75.50
80577;DHT22;69937;52.420;10.538;2024-02-26T23:01:24;4.80;75.60
80577;DHT22;69937;52.420;10.538;2024-02-26T23:06:24;4.80;75.80
80577;DHT22;69937;52.420;10.538;2024-02-26T23:11:25;4.70;76.00
80577;DHT22;69937;52.420;10.538;2024-02-26T23:16:25;4.70;76.00
80577;DHT22;69937;52.420;10.538;2024-02-26T23:21:28;4.70;76.00
80577;DHT22;69937;52.420;10.538;2024-02-26T23:26:28;4.70;76.10
80577;DHT22;69937;52.420;10.538;2024-02-26T23:31:29;4.60;76.10
80577;DHT22;69937;52.420;10.538;2024-02-26T23:36:29;4.60;76.10
80577;DHT22;69937;52.420;10.538;2024-02-26T23:41:30;4.50;76.00
80577;DHT22;69937;52.420;10.538;2024-02-26T23:46:32;4.50;76.00
80577;DHT22;69937;52.420;10.538;2024-02-26T23:51:36;4.40;76.00
80577;DHT22;69937;52.420;10.538;2024-02-26T23:56:37;4.30;75.90
